sensor_id;sensor_type;location;lat;lon;timestamp;temperature;humidity
54884;DHT22;40776;52.880;6.016;2023-06-22T06:24:52;20.50;99.90
54884;DHT22;40776;52.880;6.016;2023-06-22T06:32:13;20.80;99.90
54884;DHT22;40776;52.880;6.016;2023-06-22T06:37:08;20.80;99.90
54884;DHT22;40776;52.880;6.016;2023-06-22T06:42:03;20.90;99.90
54884;DHT22;40776;52.880;6.016;2023-06-22T06:44:29;21.00;99.90
54884;DHT22;40776;52.880;6.016;2023-06-22T06:54:13;21.40;99.90
54884;DHT22;40776;52.880;6.016;2023-06-22T06:56:39;21.80;99.90
54884;DHT22;40776;52.880;6.016;2023-06-22T07:01:30;21.90;99.90
54884;DHT22;40776;52.880;6.016;2023-06-22T07:03:59;21.70;99.90
54884;DHT22;40776;52.880;6.016;2023-06-22T07:06:26;21.80;99.90
54884;DHT22;40776;52.880;6.016;2023-06-22T07:08:55;21.70;99.90
54884;DHT22;40776;52.880;6.016;2023-06-22T07:13:47;22.10;99.90
54884;DHT22;40776;52.880;6.016;2023-06-22T07:18:40;22.50;99.90
54884;DHT22;40776;52.880;6.016;2023-06-22T07:23:32;22.70;99.90
54884;DHT22;40776;52.880;6.016;2023-06-22T07:25:58;22.80;99.90
54884;DHT22;40776;52.880;6.016;2023-06-22T07:28:27;23.00;99.90
54884;DHT22;40776;52.880;6.016;2023-06-22T07:30:53;23.30;99.90
54884;DHT22;40776;52.880;6.016;2023-06-22T07:35:45;23.40;99.90
54884;DHT22;40776;52.880;6.016;2023-06-22T07:38:13;23.40;99.90
54884;DHT22;40776;52.880;6.016;2023-06-22T07:40:40;23.60;99.90
54884;DHT22;40776;52.880;6.016;2023-06-22T07:43:07;23.60;99.90
54884;DHT22;40776;52.880;6.016;2023-06-22T07:48:00;23.60;99.90
54884;DHT22;40776;52.880;6.016;2023-06-22T07:50:26;23.90;99.90
54884;DHT22;40776;52.880;6.016;2023-06-22T07:52:52;24.10;99.90
54884;DHT22;40776;52.880;6.016;2023-06-22T07:55:18;24.40;99.90
54884;DHT22;40776;52.880;6.016;2023-06-22T07:57:46;24.30;99.90
54884;DHT22;40776;52.880;6.016;2023-06-22T08:00:12;24.40;99.90
54884;DHT22;40776;52.880;6.016;2023-06-22T08:02:42;24.30;99.90
54884;DHT22;40776;52.880;6.016;2023-06-22T08:05:09;24.70;99.90
54884;DHT22;40776;52.880;6.016;2023-06-22T08:07:35;24.70;99.90
54884;DHT22;40776;52.880;6.016;2023-06-22T08:10:09;24.20;99.90
54884;DHT22;40776;52.880;6.016;2023-06-22T08:12:35;24.30;99.90
54884;DHT22;40776;52.880;6.016;2023-06-22T08:15:01;24.20;99.90
54884;DHT22;40776;52.880;6.016;2023-06-22T08:17:27;24.70;99.90
54884;DHT22;40776;52.880;6.016;2023-06-22T08:19:52;24.90;99.90
54884;DHT22;40776;52.880;6.016;2023-06-22T08:22:18;25.10;99.90
54884;DHT22;40776;52.880;6.016;2023-06-22T08:24:44;24.50;99.90
54884;DHT22;40776;52.880;6.016;2023-06-22T08:27:12;24.40;99.90
54884;DHT22;40776;52.880;6.016;2023-06-22T08:29:39;24.20;99.90
54884;DHT22;40776;52.880;6.016;2023-06-22T08:32:05;24.20;99.90
54884;DHT22;40776;52.880;6.016;2023-06-22T08:36:57;24.10;99.90
54884;DHT22;40776;52.880;6.016;2023-06-22T08:39:23;24.30;99.90
54884;DHT22;40776;52.880;6.016;2023-06-22T08:41:49;24.40;99.90
54884;DHT22;40776;52.880;6.016;2023-06-22T08:44:18;24.40;99.90
54884;DHT22;40776;52.880;6.016;2023-06-22T08:46:43;24.70;99.90
54884;DHT22;40776;52.880;6.016;2023-06-22T08:49:09;24.90;99.90
54884;DHT22;40776;52.880;6.016;2023-06-22T08:51:35;25.30;99.90
54884;DHT22;40776;52.880;6.016;2023-06-22T08:54:01;25.50;99.90
54884;DHT22;40776;52.880;6.016;2023-06-22T08:56:27;25.60;99.90
54884;DHT22;40776;52.880;6.016;2023-06-22T08:58:53;25.50;99.90
54884;DHT22;40776;52.880;6.016;2023-06-22T09:01:18;25.50;99.90
54884;DHT22;40776;52.880;6.016;2023-06-22T09:03:44;25.00;99.90
54884;DHT22;40776;52.880;6.016;2023-06-22T09:06:20;24.90;99.90
54884;DHT22;40776;52.880;6.016;2023-06-22T09:08:46;25.00;99.90
54884;DHT22;40776;52.880;6.016;2023-06-22T09:11:12;25.20;99.90
54884;DHT22;40776;52.880;6.016;2023-06-22T09:13:38;25.70;99.90
54884;DHT22;40776;52.880;6.016;2023-06-22T09:16:04;25.90;99.90
54884;DHT22;40776;52.880;6.016;2023-06-22T09:18:30;24.90;99.90
54884;DHT22;40776;52.880;6.016;2023-06-22T09:20:56;25.10;99.90
54884;DHT22;40776;52.880;6.016;2023-06-22T09:23:21;25.10;99.90
54884;DHT22;40776;52.880;6.016;2023-06-22T09:25:47;25.20;99.90
54884;DHT22;40776;52.880;6.016;2023-06-22T09:28:14;25.60;99.90
54884;DHT22;40776;52.880;6.016;2023-06-22T09:30:40;25.80;99.90
54884;DHT22;40776;52.880;6.016;2023-06-22T09:33:05;26.00;99.90
54884;DHT22;40776;52.880;6.016;2023-06-22T09:35:31;25.90;99.90
54884;DHT22;40776;52.880;6.016;2023-06-22T09:37:56;25.90;99.90
54884;DHT22;40776;52.880;6.016;2023-06-22T09:40:25;26.20;99.90
54884;DHT22;40776;52.880;6.016;2023-06-22T09:42:51;26.60;99.90
54884;DHT22;40776;52.880;6.016;2023-06-22T09:45:17;27.10;99.90
54884;DHT22;40776;52.880;6.016;2023-06-22T09:47:43;26.90;99.90
54884;DHT22;40776;52.880;6.016;2023-06-22T09:50:08;26.70;99.90
54884;DHT22;40776;52.880;6.016;2023-06-22T09:52:34;26.20;99.90
54884;DHT22;40776;52.880;6.016;2023-06-22T09:55:00;26.40;99.90
54884;DHT22;40776;52.880;6.016;2023-06-22T09:57:26;26.70;99.90
54884;DHT22;40776;52.880;6.016;2023-06-22T09:59:51;27.10;99.90
54884;DHT22;40776;52.880;6.016;2023-06-22T10:02:17;26.70;99.90
54884;DHT22;40776;52.880;6.016;2023-06-22T10:04:43;27.10;99.90
54884;DHT22;40776;52.880;6.016;2023-06-22T10:07:08;26.70;99.90
54884;DHT22;40776;52.880;6.016;2023-06-22T10:09:34;26.80;99.90
54884;DHT22;40776;52.880;6.016;2023-06-22T10:12:00;26.30;99.90
54884;DHT22;40776;52.880;6.016;2023-06-22T10:14:26;26.20;99.90
54884;DHT22;40776;52.880;6.016;2023-06-22T10:16:52;26.00;99.90
54884;DHT22;40776;52.880;6.016;2023-06-22T10:19:18;26.90;99.90
54884;DHT22;40776;52.880;6.016;2023-06-22T10:21:44;27.00;99.90
54884;DHT22;40776;52.880;6.016;2023-06-22T10:24:10;26.70;99.90
54884;DHT22;40776;52.880;6.016;2023-06-22T10:26:36;26.40;99.90
54884;DHT22;40776;52.880;6.016;2023-06-22T10:29:02;26.10;99.90
54884;DHT22;40776;52.880;6.016;2023-06-22T10:31:28;26.20;99.90
54884;DHT22;40776;52.880;6.016;2023-06-22T10:33:55;26.40;99.90
54884;DHT22;40776;52.880;6.016;2023-06-22T10:36:25;26.70;99.90
54884;DHT22;40776;52.880;6.016;2023-06-22T10:38:51;26.80;99.90
54884;DHT22;40776;52.880;6.016;2023-06-22T10:41:18;26.90;99.90
54884;DHT22;40776;52.880;6.016;2023-06-22T10:43:44;26.60;99.90
54884;DHT22;40776;52.880;6.016;2023-06-22T10:46:10;26.60;99.90
54884;DHT22;40776;52.880;6.016;2023-06-22T10:48:35;26.30;99.90
54884;DHT22;40776;52.880;6.016;2023-06-22T10:51:01;26.50;99.90
54884;DHT22;40776;52.880;6.016;2023-06-22T10:53:27;26.80;99.90
54884;DHT22;40776;52.880;6.016;2023-06-22T10:55:53;26.50;99.90
54884;DHT22;40776;52.880;6.016;2023-06-22T11:00:46;26.40;99.90
54884;DHT22;40776;52.880;6.016;2023-06-22T11:03:11;26.70;99.90
54884;DHT22;40776;52.880;6.016;2023-06-22T11:05:39;26.90;99.90
54884;DHT22;40776;52.880;6.016;2023-06-22T11:08:05;27.10;99.90
54884;DHT22;40776;52.880;6.016;2023-06-22T11:10:31;26.90;99.90
54884;DHT22;40776;52.880;6.016;2023-06-22T11:12:57;27.30;99.90
54884;DHT22;40776;52.880;6.016;2023-06-22T11:15:24;27.20;99.90
54884;DHT22;40776;52.880;6.016;2023-06-22T11:17:50;27.10;99.90
54884;DHT22;40776;52.880;6.016;2023-06-22T11:20:15;27.10;99.90
54884;DHT22;40776;52.880;6.016;2023-06-22T11:22:42;27.20;99.90
54884;DHT22;40776;52.880;6.016;2023-06-22T11:25:08;27.10;99.90
54884;DHT22;40776;52.880;6.016;2023-06-22T11:27:34;26.70;99.90
54884;DHT22;40776;52.880;6.016;2023-06-22T11:32:26;26.80;99.90
54884;DHT22;40776;52.880;6.016;2023-06-22T11:34:51;26.20;99.90
54884;DHT22;40776;52.880;6.016;2023-06-22T11:37:17;26.30;99.90
54884;DHT22;40776;52.880;6.016;2023-06-22T11:39:43;25.60;99.90
54884;DHT22;40776;52.880;6.016;2023-06-22T11:42:09;26.00;99.90
54884;DHT22;40776;52.880;6.016;2023-06-22T11:44:35;25.70;99.90
54884;DHT22;40776;52.880;6.016;2023-06-22T11:47:01;25.80;99.90
54884;DHT22;40776;52.880;6.016;2023-06-22T11:49:30;25.60;99.90
54884;DHT22;40776;52.880;6.016;2023-06-22T11:51:56;25.60;99.90
54884;DHT22;40776;52.880;6.016;2023-06-22T11:56:47;25.70;99.90
54884;DHT22;40776;52.880;6.016;2023-06-22T11:59:13;26.00;99.90
54884;DHT22;40776;52.880;6.016;2023-06-22T12:01:39;26.30;99.90
54884;DHT22;40776;52.880;6.016;2023-06-22T12:04:05;26.50;99.90
54884;DHT22;40776;52.880;6.016;2023-06-22T12:06:32;26.50;99.90
54884;DHT22;40776;52.880;6.016;2023-06-22T12:08:58;26.10;99.90
54884;DHT22;40776;52.880;6.016;2023-06-22T12:11:24;25.80;99.90
54884;DHT22;40776;52.880;6.016;2023-06-22T12:13:50;25.60;99.90
54884;DHT22;40776;52.880;6.016;2023-06-22T12:16:15;26.10;99.90
54884;DHT22;40776;52.880;6.016;2023-06-22T12:18:41;26.40;99.90
54884;DHT22;40776;52.880;6.016;2023-06-22T12:21:07;26.40;99.90
54884;DHT22;40776;52.880;6.016;2023-06-22T12:23:33;27.00;99.90
54884;DHT22;40776;52.880;6.016;2023-06-22T12:25:58;27.10;99.90
54884;DHT22;40776;52.880;6.016;2023-06-22T12:28:25;27.20;99.90
54884;DHT22;40776;52.880;6.016;2023-06-22T12:30:51;27.30;99.90
54884;DHT22;40776;52.880;6.016;2023-06-22T12:33:17;26.80;99.90
54884;DHT22;40776;52.880;6.016;2023-06-22T12:35:43;26.70;99.90
54884;DHT22;40776;52.880;6.016;2023-06-22T12:38:10;27.20;99.90
54884;DHT22;40776;52.880;6.016;2023-06-22T12:40:36;27.40;99.90
54884;DHT22;40776;52.880;6.016;2023-06-22T12:45:28;26.30;99.90
54884;DHT22;40776;52.880;6.016;2023-06-22T12:47:57;26.40;99.90
54884;DHT22;40776;52.880;6.016;2023-06-22T12:52:49;26.90;99.90
54884;DHT22;40776;52.880;6.016;2023-06-22T12:55:14;27.10;99.90
54884;DHT22;40776;52.880;6.016;2023-06-22T12:57:40;26.70;99.90
54884;DHT22;40776;52.880;6.016;2023-06-22T13:00:06;27.00;99.90
54884;DHT22;40776;52.880;6.016;2023-06-22T13:02:34;27.00;99.90
54884;DHT22;40776;52.880;6.016;2023-06-22T13:04:59;26.70;99.90
54884;DHT22;40776;52.880;6.016;2023-06-22T13:07:25;26.70;99.90
54884;DHT22;40776;52.880;6.016;2023-06-22T13:09:53;26.10;99.90
54884;DHT22;40776;52.880;6.016;2023-06-22T13:12:22;25.70;99.90
54884;DHT22;40776;52.880;6.016;2023-06-22T13:19:40;25.50;99.90
54884;DHT22;40776;52.880;6.016;2023-06-22T13:22:34;25.60;99.90
54884;DHT22;40776;52.880;6.016;2023-06-22T13:25:06;25.50;99.90
54884;DHT22;40776;52.880;6.016;2023-06-22T13:27:32;25.90;99.90
54884;DHT22;40776;52.880;6.016;2023-06-22T13:32:24;25.80;99.90
54884;DHT22;40776;52.880;6.016;2023-06-22T13:34:50;26.00;99.90
54884;DHT22;40776;52.880;6.016;2023-06-22T13:51:52;25.40;99.90
54884;DHT22;40776;52.880;6.016;2023-06-22T13:54:18;25.10;99.90
54884;DHT22;40776;52.880;6.016;2023-06-22T13:56:44;24.90;99.90
54884;DHT22;40776;52.880;6.016;2023-06-22T14:33:17;23.60;99.90
54884;DHT22;40776;52.880;6.016;2023-06-22T14:55:15;22.80;99.90
54884;DHT22;40776;52.880;6.016;2023-06-22T15:31:53;22.00;99.90
54884;DHT22;40776;52.880;6.016;2023-06-22T17:51:36;20.30;99.90
